sensor_id;sensor_type;location;lat;lon;timestamp;pressure;altitude;pressure_sealevel;temperature;humidity
8039;BME280;4062;49.844;8.120;2023-03-30T00:00:44;98784.47;;;13.94;55.91
8039;BME280;4062;49.844;8.120;2023-03-30T00:02:50;98783.59;;;13.93;55.98
8039;BME280;4062;49.844;8.120;2023-03-30T00:04:53;98788.91;;;13.93;55.98
8039;BME280;4062;49.844;8.120;2023-03-30T00:06:54;98787.13;;;13.94;56.04
8039;BME280;4062;49.844;8.120;2023-03-30T00:08:58;98786.25;;;13.93;55.99
8039;BME280;4062;49.844;8.120;2023-03-30T00:11:07;98783.59;;;13.93;56.04
8039;BME280;4062;49.844;8.120;2023-03-30T00:13:09;98772.13;;;13.93;56.02
8039;BME280;4062;49.844;8.120;2023-03-30T00:15:17;98780.94;;;13.93;55.99
8039;BME280;4062;49.844;8.120;2023-03-30T00:17:19;98784.47;;;13.94;55.91
8039;BME280;4062;49.844;8.120;2023-03-30T00:19:21;98773.84;;;13.94;56.01
8039;BME280;4062;49.844;8.120;2023-03-30T00:21:23;98775.63;;;13.93;56.05
8039;BME280;4062;49.844;8.120;2023-03-30T00:23:24;98774.78;;;13.93;55.91
8039;BME280;4062;49.844;8.120;2023-03-30T00:25:26;98773.84;;;13.94;55.97
8039;BME280;4062;49.844;8.120;2023-03-30T00:27:27;98774.78;;;13.93;55.98
8039;BME280;4062;49.844;8.120;2023-03-30T00:29:28;98773.91;;;13.92;55.96
8039;BME280;4062;49.844;8.120;2023-03-30T00:31:30;98767.66;;;13.93;56.00
8039;BME280;4062;49.844;8.120;2023-03-30T00:33:31;98765.00;;;13.93;55.85
8039;BME280;4062;49.844;8.120;2023-03-30T00:35:33;98769.47;;;13.93;56.02
8039;BME280;4062;49.844;8.120;2023-03-30T00:37:35;98763.22;;;13.94;55.92
8039;BME280;4062;49.844;8.120;2023-03-30T00:39:38;98758.84;;;13.93;55.95
8039;BME280;4062;49.844;8.120;2023-03-30T00:41:39;98759.69;;;13.93;55.91
8039;BME280;4062;49.844;8.120;2023-03-30T00:44:05;98767.66;;;13.93;56.01
8039;BME280;4062;49.844;8.120;2023-03-30T00:46:07;98768.59;;;13.92;56.00
8039;BME280;4062;49.844;8.120;2023-03-30T00:48:21;98769.47;;;13.93;56.00
8039;BME280;4062;49.844;8.120;2023-03-30T00:50:41;98767.66;;;13.93;56.05
8039;BME280;4062;49.844;8.120;2023-03-30T00:52:46;98778.28;;;13.93;55.93
8039;BME280;4062;49.844;8.120;2023-03-30T00:54:48;98780.09;;;13.93;56.06
8039;BME280;4062;49.844;8.120;2023-03-30T00:56:49;98775.63;;;13.93;55.88
8039;BME280;4062;49.844;8.120;2023-03-30T00:58:50;98772.97;;;13.93;55.93
8039;BME280;4062;49.844;8.120;2023-03-30T01:00:52;98783.59;;;13.93;55.86
8039;BME280;4062;49.844;8.120;2023-03-30T01:02:58;98786.25;;;13.93;55.97
8039;BME280;4062;49.844;8.120;2023-03-30T01:05:01;98788.91;;;13.93;56.07
8039;BME280;4062;49.844;8.120;2023-03-30T01:07:04;98777.44;;;13.93;55.93
8039;BME280;4062;49.844;8.120;2023-03-30T01:09:06;98775.63;;;13.93;55.97
8039;BME280;4062;49.844;8.120;2023-03-30T01:11:09;98778.34;;;13.91;55.95
8039;BME280;4062;49.844;8.120;2023-03-30T01:13:13;98777.44;;;13.93;55.89
8039;BME280;4062;49.844;8.120;2023-03-30T01:15:15;98774.78;;;13.93;56.02
8039;BME280;4062;49.844;8.120;2023-03-30T01:20:01;98775.63;;;13.93;55.88
8039;BME280;4062;49.844;8.120;2023-03-30T01:24:50;98784.50;;;13.92;55.95
8039;BME280;4062;49.844;8.120;2023-03-30T01:27:10;98772.13;;;13.93;56.08
8039;BME280;4062;49.844;8.120;2023-03-30T01:29:40;98762.34;;;13.93;56.01
8039;BME280;4062;49.844;8.120;2023-03-30T01:32:23;98754.47;;;13.91;55.92
8039;BME280;4062;49.844;8.120;2023-03-30T01:39:47;98769.47;;;13.93;56.01
8039;BME280;4062;49.844;8.120;2023-03-30T01:42:05;98761.50;;;13.93;56.00
8039;BME280;4062;49.844;8.120;2023-03-30T01:47:08;98776.56;;;13.92;55.94
8039;BME280;4062;49.844;8.120;2023-03-30T01:49:26;98770.38;;;13.91;56.02
8039;BME280;4062;49.844;8.120;2023-03-30T01:51:34;98772.13;;;13.93;56.01
8039;BME280;4062;49.844;8.120;2023-03-30T01:53:53;98773.91;;;13.92;56.05
8039;BME280;4062;49.844;8.120;2023-03-30T01:58:32;98795.13;;;13.92;55.87
8039;BME280;4062;49.844;8.120;2023-03-30T02:00:36;98776.56;;;13.92;56.07
8039;BME280;4062;49.844;8.120;2023-03-30T02:02:53;98772.13;;;13.93;55.91
8039;BME280;4062;49.844;8.120;2023-03-30T02:04:59;98772.13;;;13.93;55.91
8039;BME280;4062;49.844;8.120;2023-03-30T02:07:10;98779.19;;;13.92;56.01
8039;BME280;4062;49.844;8.120;2023-03-30T02:09:16;98771.25;;;13.92;55.99
8039;BME280;4062;49.844;8.120;2023-03-30T02:11:20;98758.88;;;13.91;55.99
8039;BME280;4062;49.844;8.120;2023-03-30T02:13:25;98765.94;;;13.92;55.98
8039;BME280;4062;49.844;8.120;2023-03-30T02:15:35;98780.09;;;13.93;56.01
8039;BME280;4062;49.844;8.120;2023-03-30T02:17:38;98773.91;;;13.92;55.96
8039;BME280;4062;49.844;8.120;2023-03-30T02:19:39;98763.28;;;13.92;56.13
8039;BME280;4062;49.844;8.120;2023-03-30T02:21:44;98757.97;;;13.92;56.00
8039;BME280;4062;49.844;8.120;2023-03-30T02:23:46;98759.78;;;13.91;55.99
8039;BME280;4062;49.844;8.120;2023-03-30T02:25:48;98751.81;;;13.91;55.96
8039;BME280;4062;49.844;8.120;2023-03-30T02:27:52;98747.34;;;13.92;56.05
8039;BME280;4062;49.844;8.120;2023-03-30T02:29:53;98739.38;;;13.92;55.88
8039;BME280;4062;49.844;8.120;2023-03-30T02:31:58;98739.38;;;13.92;56.00
8039;BME280;4062;49.844;8.120;2023-03-30T02:40:14;98781.84;;;13.92;56.06
8039;BME280;4062;49.844;8.120;2023-03-30T02:45:00;98796.03;;;13.93;56.04
8039;BME280;4062;49.844;8.120;2023-03-30T02:47:11;98795.13;;;13.92;56.07
8039;BME280;4062;49.844;8.120;2023-03-30T02:51:47;98792.47;;;13.92;55.98
8039;BME280;4062;49.844;8.120;2023-03-30T02:59:03;98810.22;;;13.91;56.01
8039;BME280;4062;49.844;8.120;2023-03-30T03:01:18;98816.38;;;13.92;56.06
8039;BME280;4062;49.844;8.120;2023-03-30T03:03:39;98813.72;;;13.92;55.99
8039;BME280;4062;49.844;8.120;2023-03-30T03:05:42;98805.75;;;13.92;56.07
8039;BME280;4062;49.844;8.120;2023-03-30T03:07:49;98778.34;;;13.91;55.99
8039;BME280;4062;49.844;8.120;2023-03-30T03:09:51;98765.94;;;13.92;56.01
8039;BME280;4062;49.844;8.120;2023-03-30T03:11:53;98776.56;;;13.92;56.05
8039;BME280;4062;49.844;8.120;2023-03-30T03:13:55;98773.03;;;13.91;56.03
8039;BME280;4062;49.844;8.120;2023-03-30T03:15:57;98775.69;;;13.91;56.20
8039;BME280;4062;49.844;8.120;2023-03-30T03:18:01;98778.34;;;13.91;55.96
8039;BME280;4062;49.844;8.120;2023-03-30T03:20:03;98774.81;;;13.91;55.96
8039;BME280;4062;49.844;8.120;2023-03-30T03:22:05;98771.25;;;13.92;56.07
8039;BME280;4062;49.844;8.120;2023-03-30T03:24:09;98752.72;;;13.90;56.02
8039;BME280;4062;49.844;8.120;2023-03-30T03:26:33;98735.88;;;13.91;56.06
8039;BME280;4062;49.844;8.120;2023-03-30T03:28:35;98729.69;;;13.91;56.02
8039;BME280;4062;49.844;8.120;2023-03-30T03:30:41;98711.97;;;13.91;56.10
8039;BME280;4062;49.844;8.120;2023-03-30T03:32:48;98705.78;;;13.91;55.88
8039;BME280;4062;49.844;8.120;2023-03-30T03:34:50;98696.97;;;13.90;56.07
8039;BME280;4062;49.844;8.120;2023-03-30T03:36:52;98686.34;;;13.90;56.02
8039;BME280;4062;49.844;8.120;2023-03-30T03:38:57;98666.81;;;13.91;55.89
8039;BME280;4062;49.844;8.120;2023-03-30T03:40:59;98656.19;;;13.91;55.99
8039;BME280;4062;49.844;8.120;2023-03-30T03:43:01;98642.03;;;13.91;55.97
8039;BME280;4062;49.844;8.120;2023-03-30T03:45:03;98635.03;;;13.90;55.95
8039;BME280;4062;49.844;8.120;2023-03-30T03:47:05;98631.44;;;13.91;55.97
8039;BME280;4062;49.844;8.120;2023-03-30T03:49:07;98629.72;;;13.90;56.14
8039;BME280;4062;49.844;8.120;2023-03-30T03:51:08;98631.44;;;13.91;56.08
8039;BME280;4062;49.844;8.120;2023-03-30T03:53:12;98622.63;;;13.90;56.03
8039;BME280;4062;49.844;8.120;2023-03-30T03:55:13;98620.81;;;13.91;55.90
8039;BME280;4062;49.844;8.120;2023-03-30T03:57:17;98618.16;;;13.91;56.10
8039;BME280;4062;49.844;8.120;2023-03-30T03:59:19;98620.81;;;13.91;56.04
8039;BME280;4062;49.844;8.120;2023-03-30T04:01:23;98618.16;;;13.91;55.99
8039;BME280;4062;49.844;8.120;2023-03-30T04:03:24;98617.31;;;13.90;56.02
8039;BME280;4062;49.844;8.120;2023-03-30T04:05:28;98619.03;;;13.91;56.01
8039;BME280;4062;49.844;8.120;2023-03-30T04:07:38;98617.31;;;13.90;56.02
8039;BME280;4062;49.844;8.120;2023-03-30T04:09:39;98619.88;;;13.92;55.91
8039;BME280;4062;49.844;8.120;2023-03-30T04:11:41;98616.47;;;13.90;55.89
8039;BME280;4062;49.844;8.120;2023-03-30T04:13:57;98614.66;;;13.90;56.02
8039;BME280;4062;49.844;8.120;2023-03-30T04:16:16;98624.44;;;13.90;55.95
8039;BME280;4062;49.844;8.120;2023-03-30T04:18:44;98634.09;;;13.91;56.04
8039;BME280;4062;49.844;8.120;2023-03-30T04:21:08;98627.06;;;13.90;56.00
8039;BME280;4062;49.844;8.120;2023-03-30T04:23:25;98629.66;;;13.91;56.05
8039;BME280;4062;49.844;8.120;2023-03-30T04:25:51;98631.44;;;13.91;56.08
8039;BME280;4062;49.844;8.120;2023-03-30T04:28:12;98640.28;;;13.91;56.02
8039;BME280;4062;49.844;8.120;2023-03-30T04:30:28;98646.50;;;13.90;56.08
8039;BME280;4062;49.844;8.120;2023-03-30T04:32:48;98656.19;;;13.91;56.12
8039;BME280;4062;49.844;8.120;2023-03-30T04:35:18;98663.28;;;13.91;55.97
8039;BME280;4062;49.844;8.120;2023-03-30T04:37:45;98671.25;;;13.91;56.06
8039;BME280;4062;49.844;8.120;2023-03-30T04:40:15;98676.56;;;13.91;56.03
8039;BME280;4062;49.844;8.120;2023-03-30T04:42:40;98690.81;;;13.90;56.04
8039;BME280;4062;49.844;8.120;2023-03-30T04:45:00;98682.75;;;13.91;56.03
8039;BME280;4062;49.844;8.120;2023-03-30T04:47:26;98680.09;;;13.91;55.91
8039;BME280;4062;49.844;8.120;2023-03-30T04:49:48;98687.19;;;13.91;56.07
8039;BME280;4062;49.844;8.120;2023-03-30T04:52:13;98682.75;;;13.91;56.10
8039;BME280;4062;49.844;8.120;2023-03-30T04:54:26;98665.09;;;13.90;56.07
8039;BME280;4062;49.844;8.120;2023-03-30T04:57:00;98645.56;;;13.91;55.99
8039;BME280;4062;49.844;8.120;2023-03-30T04:59:34;98635.03;;;13.90;55.82
8039;BME280;4062;49.844;8.120;2023-03-30T05:02:12;98631.44;;;13.91;56.03
8039;BME280;4062;49.844;8.120;2023-03-30T05:04:37;98616.38;;;13.91;56.00
8039;BME280;4062;49.844;8.120;2023-03-30T05:07:06;98617.31;;;13.90;56.04
8039;BME280;4062;49.844;8.120;2023-03-30T05:09:18;98625.28;;;13.90;56.02
8039;BME280;4062;49.844;8.120;2023-03-30T05:11:38;98620.81;;;13.91;55.99
8039;BME280;4062;49.844;8.120;2023-03-30T05:14:13;98641.19;;;13.90;56.14
8039;BME280;4062;49.844;8.120;2023-03-30T05:16:34;98652.66;;;13.91;55.95
8039;BME280;4062;49.844;8.120;2023-03-30T05:19:03;98655.31;;;13.91;56.03
8039;BME280;4062;49.844;8.120;2023-03-30T05:21:13;98657.13;;;13.90;56.04
8039;BME280;4062;49.844;8.120;2023-03-30T05:23:47;98677.44;;;13.91;55.98
8039;BME280;4062;49.844;8.120;2023-03-30T05:25:55;98680.94;;;13.92;55.96
8039;BME280;4062;49.844;8.120;2023-03-30T05:28:11;98679.22;;;13.91;56.02
8039;BME280;4062;49.844;8.120;2023-03-30T05:30:19;98687.19;;;13.91;56.00
8039;BME280;4062;49.844;8.120;2023-03-30T05:32:39;98680.09;;;13.91;56.03
8039;BME280;4062;49.844;8.120;2023-03-30T05:35:07;98675.72;;;13.90;56.03
8039;BME280;4062;49.844;8.120;2023-03-30T05:37:23;98679.22;;;13.91;56.00
8039;BME280;4062;49.844;8.120;2023-03-30T05:39:35;98690.81;;;13.90;55.96
8039;BME280;4062;49.844;8.120;2023-03-30T05:41:55;98676.56;;;13.91;55.99
8039;BME280;4062;49.844;8.120;2023-03-30T05:44:09;98689.00;;;13.90;56.03
8039;BME280;4062;49.844;8.120;2023-03-30T05:46:31;98679.22;;;13.91;56.04
8039;BME280;4062;49.844;8.120;2023-03-30T05:48:48;98679.22;;;13.91;56.12
8039;BME280;4062;49.844;8.120;2023-03-30T05:50:56;98687.19;;;13.91;55.99
8039;BME280;4062;49.844;8.120;2023-03-30T05:53:07;98679.22;;;13.91;55.87
8039;BME280;4062;49.844;8.120;2023-03-30T05:55:11;98676.56;;;13.91;56.06
8039;BME280;4062;49.844;8.120;2023-03-30T05:57:45;98673.91;;;13.91;56.09
8039;BME280;4062;49.844;8.120;2023-03-30T06:00:16;98689.84;;;13.91;56.06
8039;BME280;4062;49.844;8.120;2023-03-30T06:02:29;98696.03;;;13.91;55.95
8039;BME280;4062;49.844;8.120;2023-03-30T06:04:37;98698.69;;;13.91;56.02
8039;BME280;4062;49.844;8.120;2023-03-30T06:06:39;98701.34;;;13.91;55.95
8039;BME280;4062;49.844;8.120;2023-03-30T06:08:41;98709.31;;;13.91;56.07
8039;BME280;4062;49.844;8.120;2023-03-30T06:10:55;98697.81;;;13.91;56.04
8039;BME280;4062;49.844;8.120;2023-03-30T06:12:58;98695.16;;;13.91;56.13
8039;BME280;4062;49.844;8.120;2023-03-30T06:15:07;98694.31;;;13.90;56.03
8039;BME280;4062;49.844;8.120;2023-03-30T06:17:17;98674.78;;;13.91;56.09
8039;BME280;4062;49.844;8.120;2023-03-30T06:19:19;98676.56;;;13.91;55.89
8039;BME280;4062;49.844;8.120;2023-03-30T06:21:20;98681.88;;;13.91;55.97
8039;BME280;4062;49.844;8.120;2023-03-30T06:23:48;98687.19;;;13.91;56.04
8039;BME280;4062;49.844;8.120;2023-03-30T06:25:54;98696.03;;;13.91;56.16
8039;BME280;4062;49.844;8.120;2023-03-30T06:28:01;98677.44;;;13.91;56.06
8039;BME280;4062;49.844;8.120;2023-03-30T06:30:03;98680.09;;;13.91;56.16
8039;BME280;4062;49.844;8.120;2023-03-30T06:32:06;98658.84;;;13.91;56.00
8039;BME280;4062;49.844;8.120;2023-03-30T06:34:35;98662.34;;;13.92;55.89
8039;BME280;4062;49.844;8.120;2023-03-30T06:36:37;98666.81;;;13.91;55.95
8039;BME280;4062;49.844;8.120;2023-03-30T06:38:38;98665.94;;;13.91;56.06
8039;BME280;4062;49.844;8.120;2023-03-30T06:40:40;98670.31;;;13.92;55.94
8039;BME280;4062;49.844;8.120;2023-03-30T06:42:43;98666.81;;;13.91;56.03
8039;BME280;4062;49.844;8.120;2023-03-30T06:45:08;98668.59;;;13.91;56.12
8039;BME280;4062;49.844;8.120;2023-03-30T06:47:11;98663.25;;;13.93;56.00
8039;BME280;4062;49.844;8.120;2023-03-30T06:49:13;98665.94;;;13.91;55.97
8039;BME280;4062;49.844;8.120;2023-03-30T06:51:17;98663.28;;;13.91;55.95
8039;BME280;4062;49.844;8.120;2023-03-30T06:53:24;98655.31;;;13.91;56.03
8039;BME280;4062;49.844;8.120;2023-03-30T06:55:26;98645.56;;;13.91;55.98
8039;BME280;4062;49.844;8.120;2023-03-30T06:57:27;98635.81;;;13.92;56.03
8039;BME280;4062;49.844;8.120;2023-03-30T06:59:29;98627.84;;;13.92;56.03
8039;BME280;4062;49.844;8.120;2023-03-30T07:01:50;98618.16;;;13.91;55.97
8039;BME280;4062;49.844;8.120;2023-03-30T07:04:18;98603.09;;;13.91;56.03
8039;BME280;4062;49.844;8.120;2023-03-30T07:06:44;98573.00;;;13.91;56.04
8039;BME280;4062;49.844;8.120;2023-03-30T07:08:45;98590.66;;;13.92;56.02
8039;BME280;4062;49.844;8.120;2023-03-30T07:10:52;98607.47;;;13.93;56.01
8039;BME280;4062;49.844;8.120;2023-03-30T07:12:56;98597.78;;;13.91;56.01
8039;BME280;4062;49.844;8.120;2023-03-30T07:14:58;98573.00;;;13.91;55.92
8039;BME280;4062;49.844;8.120;2023-03-30T07:17:00;98572.06;;;13.92;55.95
8039;BME280;4062;49.844;8.120;2023-03-30T07:19:01;98588.88;;;13.93;56.13
8039;BME280;4062;49.844;8.120;2023-03-30T07:21:03;98619.88;;;13.92;55.99
8039;BME280;4062;49.844;8.120;2023-03-30T07:23:12;98642.00;;;13.93;56.12
8039;BME280;4062;49.844;8.120;2023-03-30T07:25:15;98658.84;;;13.91;55.96
8039;BME280;4062;49.844;8.120;2023-03-30T07:27:16;98652.63;;;13.93;56.01
8039;BME280;4062;49.844;8.120;2023-03-30T07:29:18;98665.00;;;13.92;55.94
8039;BME280;4062;49.844;8.120;2023-03-30T07:31:25;98671.19;;;13.93;56.14
8039;BME280;4062;49.844;8.120;2023-03-30T07:33:27;98679.09;;;13.94;55.94
8039;BME280;4062;49.844;8.120;2023-03-30T07:35:30;98678.28;;;13.92;56.16
8039;BME280;4062;49.844;8.120;2023-03-30T07:37:34;98682.75;;;13.91;55.95
8039;BME280;4062;49.844;8.120;2023-03-30T07:39:37;98664.09;;;13.93;56.04
8039;BME280;4062;49.844;8.120;2023-03-30T07:41:39;98658.84;;;13.91;56.06
8039;BME280;4062;49.844;8.120;2023-03-30T07:43:41;98652.63;;;13.93;56.01
8039;BME280;4062;49.844;8.120;2023-03-30T07:45:42;98635.81;;;13.92;55.94
8039;BME280;4062;49.844;8.120;2023-03-30T07:47:48;98637.63;;;13.91;55.98
8039;BME280;4062;49.844;8.120;2023-03-30T07:49:50;98643.78;;;13.92;55.95
8039;BME280;4062;49.844;8.120;2023-03-30T07:51:53;98665.00;;;13.92;55.96
8039;BME280;4062;49.844;8.120;2023-03-30T07:53:59;98691.56;;;13.92;56.01
8039;BME280;4062;49.844;8.120;2023-03-30T07:56:14;98699.53;;;13.92;56.01
8039;BME280;4062;49.844;8.120;2023-03-30T07:58:20;98696.88;;;13.92;56.08
8039;BME280;4062;49.844;8.120;2023-03-30T08:00:23;98697.75;;;13.93;55.98
8039;BME280;4062;49.844;8.120;2023-03-30T08:02:50;98694.22;;;13.92;56.10
8039;BME280;4062;49.844;8.120;2023-03-30T08:04:54;98699.53;;;13.92;55.91
8039;BME280;4062;49.844;8.120;2023-03-30T08:07:14;98689.78;;;13.93;55.99
8039;BME280;4062;49.844;8.120;2023-03-30T08:09:18;98704.00;;;13.91;56.03
8039;BME280;4062;49.844;8.120;2023-03-30T08:11:20;98699.53;;;13.92;55.94
8039;BME280;4062;49.844;8.120;2023-03-30T08:13:21;98696.88;;;13.92;56.13
8039;BME280;4062;49.844;8.120;2023-03-30T08:15:23;98708.38;;;13.93;56.09
8039;BME280;4062;49.844;8.120;2023-03-30T08:17:24;98715.47;;;13.92;56.01
8039;BME280;4062;49.844;8.120;2023-03-30T08:19:26;98726.09;;;13.92;56.07
8039;BME280;4062;49.844;8.120;2023-03-30T08:21:28;98728.75;;;13.92;55.88
8039;BME280;4062;49.844;8.120;2023-03-30T08:23:30;98728.69;;;13.94;56.05
8039;BME280;4062;49.844;8.120;2023-03-30T08:25:31;98726.97;;;13.93;56.02
8039;BME280;4062;49.844;8.120;2023-03-30T08:27:33;98725.16;;;13.93;56.13
8039;BME280;4062;49.844;8.120;2023-03-30T08:29:34;98718.91;;;13.94;55.97
8039;BME280;4062;49.844;8.120;2023-03-30T08:31:36;98730.47;;;13.93;56.01
8039;BME280;4062;49.844;8.120;2023-03-30T08:33:38;98714.63;;;13.91;56.06
8039;BME280;4062;49.844;8.120;2023-03-30T08:35:42;98711.03;;;13.93;55.94
8039;BME280;4062;49.844;8.120;2023-03-30T08:37:44;98721.66;;;13.93;56.11
8039;BME280;4062;49.844;8.120;2023-03-30T08:39:46;98726.97;;;13.93;56.04
8039;BME280;4062;49.844;8.120;2023-03-30T08:44:32;98753.53;;;13.93;55.81
8039;BME280;4062;49.844;8.120;2023-03-30T08:46:34;98754.38;;;13.93;55.95
8039;BME280;4062;49.844;8.120;2023-03-30T08:48:36;98741.09;;;13.93;56.15
8039;BME280;4062;49.844;8.120;2023-03-30T08:50:40;98732.28;;;13.93;56.14
8039;BME280;4062;49.844;8.120;2023-03-30T08:52:43;98723.44;;;13.92;55.99
8039;BME280;4062;49.844;8.120;2023-03-30T08:54:45;98719.00;;;13.93;55.95
8039;BME280;4062;49.844;8.120;2023-03-30T08:59:19;98719.00;;;13.93;56.08
8039;BME280;4062;49.844;8.120;2023-03-30T09:01:44;98713.69;;;13.93;56.00
8039;BME280;4062;49.844;8.120;2023-03-30T09:04:11;98717.19;;;13.93;56.06
8039;BME280;4062;49.844;8.120;2023-03-30T09:08:32;98701.25;;;13.93;56.07
8039;BME280;4062;49.844;8.120;2023-03-30T09:10:38;98703.91;;;13.93;56.00
8039;BME280;4062;49.844;8.120;2023-03-30T09:12:48;98709.22;;;13.93;55.99
8039;BME280;4062;49.844;8.120;2023-03-30T09:14:59;98705.72;;;13.93;56.05
8039;BME280;4062;49.844;8.120;2023-03-30T09:17:11;98713.69;;;13.93;56.02
8039;BME280;4062;49.844;8.120;2023-03-30T09:19:21;98711.88;;;13.93;56.06
8039;BME280;4062;49.844;8.120;2023-03-30T09:21:28;98725.16;;;13.93;56.10
8039;BME280;4062;49.844;8.120;2023-03-30T09:23:31;98719.84;;;13.93;55.97
8039;BME280;4062;49.844;8.120;2023-03-30T09:28:18;98733.13;;;13.93;56.02
8039;BME280;4062;49.844;8.120;2023-03-30T09:30:33;98727.81;;;13.93;55.88
8039;BME280;4062;49.844;8.120;2023-03-30T09:32:41;98742.81;;;13.94;56.10
8039;BME280;4062;49.844;8.120;2023-03-30T09:37:13;98733.13;;;13.93;56.01
8039;BME280;4062;49.844;8.120;2023-03-30T09:39:19;98726.88;;;13.94;55.92
8039;BME280;4062;49.844;8.120;2023-03-30T09:44:01;98717.19;;;13.93;55.81
8039;BME280;4062;49.844;8.120;2023-03-30T09:46:06;98718.06;;;13.94;55.94
8039;BME280;4062;49.844;8.120;2023-03-30T09:48:09;98734.84;;;13.94;55.97
8039;BME280;4062;49.844;8.120;2023-03-30T09:50:22;98725.16;;;13.93;55.98
8039;BME280;4062;49.844;8.120;2023-03-30T09:52:35;98721.56;;;13.94;56.10
8039;BME280;4062;49.844;8.120;2023-03-30T09:54:40;98723.38;;;13.94;56.04
8039;BME280;4062;49.844;8.120;2023-03-30T09:56:42;98726.03;;;13.94;56.10
8039;BME280;4062;49.844;8.120;2023-03-30T09:58:47;98732.19;;;13.94;56.00
8039;BME280;4062;49.844;8.120;2023-03-30T10:03:19;98742.81;;;13.94;56.06
8039;BME280;4062;49.844;8.120;2023-03-30T10:05:21;98735.72;;;13.95;55.94
8039;BME280;4062;49.844;8.120;2023-03-30T10:07:24;98733.00;;;13.96;55.77
8039;BME280;4062;49.844;8.120;2023-03-30T10:09:27;98727.69;;;13.96;55.91
8039;BME280;4062;49.844;8.120;2023-03-30T10:11:41;98735.66;;;13.96;55.92
8039;BME280;4062;49.844;8.120;2023-03-30T10:13:43;98729.41;;;13.97;55.96
8039;BME280;4062;49.844;8.120;2023-03-30T10:15:46;98721.50;;;13.96;55.91
8039;BME280;4062;49.844;8.120;2023-03-30T10:17:51;98738.31;;;13.96;55.88
8039;BME280;4062;49.844;8.120;2023-03-30T10:22:27;98745.34;;;13.97;55.95
8039;BME280;4062;49.844;8.120;2023-03-30T10:24:32;98722.38;;;13.96;56.04
8039;BME280;4062;49.844;8.120;2023-03-30T10:26:36;98732.91;;;13.98;55.91
8039;BME280;4062;49.844;8.120;2023-03-30T10:28:37;98737.38;;;13.97;55.99
8039;BME280;4062;49.844;8.120;2023-03-30T10:30:41;98726.75;;;13.97;56.03
8039;BME280;4062;49.844;8.120;2023-03-30T10:32:51;98729.41;;;13.97;56.10
8039;BME280;4062;49.844;8.120;2023-03-30T10:34:55;98734.72;;;13.97;55.89
8039;BME280;4062;49.844;8.120;2023-03-30T10:36:58;98732.91;;;13.98;56.11
8039;BME280;4062;49.844;8.120;2023-03-30T10:39:10;98741.75;;;13.98;55.86
8039;BME280;4062;49.844;8.120;2023-03-30T10:41:18;98735.56;;;13.98;55.96
8039;BME280;4062;49.844;8.120;2023-03-30T10:43:26;98740.88;;;13.98;55.87
8039;BME280;4062;49.844;8.120;2023-03-30T10:45:48;98736.44;;;13.98;55.94
8039;BME280;4062;49.844;8.120;2023-03-30T10:54:54;98745.34;;;13.97;55.99
8039;BME280;4062;49.844;8.120;2023-03-30T10:57:00;98729.41;;;13.97;56.06
8039;BME280;4062;49.844;8.120;2023-03-30T10:59:29;98744.47;;;13.97;55.90
8039;BME280;4062;49.844;8.120;2023-03-30T11:04:22;98739.09;;;13.98;55.93
8039;BME280;4062;49.844;8.120;2023-03-30T11:06:34;98732.91;;;13.98;56.00
8039;BME280;4062;49.844;8.120;2023-03-30T11:08:41;98729.41;;;13.97;56.16
8039;BME280;4062;49.844;8.120;2023-03-30T11:10:51;98729.41;;;13.97;55.99
8039;BME280;4062;49.844;8.120;2023-03-30T11:13:05;98720.50;;;13.98;55.88
8039;BME280;4062;49.844;8.120;2023-03-30T11:15:13;98721.44;;;13.97;55.90
8039;BME280;4062;49.844;8.120;2023-03-30T11:17:28;98715.19;;;13.98;55.94
8039;BME280;4062;49.844;8.120;2023-03-30T11:19:45;98720.50;;;13.98;55.84
8039;BME280;4062;49.844;8.120;2023-03-30T11:22:04;98709.00;;;13.98;55.98
8039;BME280;4062;49.844;8.120;2023-03-30T11:24:20;98701.91;;;13.98;55.94
8039;BME280;4062;49.844;8.120;2023-03-30T11:30:33;98711.59;;;13.99;55.94
8039;BME280;4062;49.844;8.120;2023-03-30T11:32:55;98715.09;;;14.00;55.99
8039;BME280;4062;49.844;8.120;2023-03-30T11:37:41;98720.41;;;14.00;55.95
8039;BME280;4062;49.844;8.120;2023-03-30T11:40:25;98714.25;;;13.99;56.03
8039;BME280;4062;49.844;8.120;2023-03-30T11:42:30;98717.75;;;14.00;55.86
8039;BME280;4062;49.844;8.120;2023-03-30T11:44:32;98716.91;;;13.99;56.00
8039;BME280;4062;49.844;8.120;2023-03-30T11:56:36;98718.59;;;14.00;55.95
8039;BME280;4062;49.844;8.120;2023-03-30T11:58:41;98712.44;;;14.00;55.80
8039;BME280;4062;49.844;8.120;2023-03-30T12:01:05;98710.63;;;14.00;55.96
8039;BME280;4062;49.844;8.120;2023-03-30T12:07:38;98705.31;;;14.00;55.90
8039;BME280;4062;49.844;8.120;2023-03-30T12:09:50;98712.44;;;14.00;55.84
8039;BME280;4062;49.844;8.120;2023-03-30T12:12:10;98713.28;;;14.00;55.96
8039;BME280;4062;49.844;8.120;2023-03-30T12:14:46;98707.13;;;14.00;55.93
8039;BME280;4062;49.844;8.120;2023-03-30T12:16:52;98702.66;;;14.00;55.83
8039;BME280;4062;49.844;8.120;2023-03-30T12:19:05;98698.25;;;14.01;55.94
8039;BME280;4062;49.844;8.120;2023-03-30T12:21:49;98693.84;;;14.00;55.86
8039;BME280;4062;49.844;8.120;2023-03-30T12:24:14;98691.19;;;14.00;55.97
8039;BME280;4062;49.844;8.120;2023-03-30T12:26:29;98682.31;;;14.01;56.05
8039;BME280;4062;49.844;8.120;2023-03-30T12:28:43;98682.31;;;14.01;56.04
8039;BME280;4062;49.844;8.120;2023-03-30T12:30:58;98678.78;;;14.00;55.90
8039;BME280;4062;49.844;8.120;2023-03-30T12:33:09;98676.13;;;14.00;55.90
8039;BME280;4062;49.844;8.120;2023-03-30T12:37:50;98683.16;;;14.01;56.00
8039;BME280;4062;49.844;8.120;2023-03-30T12:40:06;98670.81;;;14.00;55.88
8039;BME280;4062;49.844;8.120;2023-03-30T12:42:24;98676.13;;;14.00;55.93
8039;BME280;4062;49.844;8.120;2023-03-30T12:44:34;98676.13;;;14.00;55.96
8039;BME280;4062;49.844;8.120;2023-03-30T12:46:59;98682.31;;;14.01;55.86
8039;BME280;4062;49.844;8.120;2023-03-30T12:49:13;98682.31;;;14.01;55.92
8039;BME280;4062;49.844;8.120;2023-03-30T12:51:36;98683.22;;;14.00;55.99
8039;BME280;4062;49.844;8.120;2023-03-30T13:00:33;98690.28;;;14.01;56.02
8039;BME280;4062;49.844;8.120;2023-03-30T13:04:50;98709.72;;;14.01;55.98
8039;BME280;4062;49.844;8.120;2023-03-30T13:07:02;98704.41;;;14.01;55.98
8039;BME280;4062;49.844;8.120;2023-03-30T13:11:19;98698.25;;;14.01;55.89
8039;BME280;4062;49.844;8.120;2023-03-30T13:13:46;98697.38;;;14.00;56.01
8039;BME280;4062;49.844;8.120;2023-03-30T13:15:51;98689.38;;;14.00;56.03
8039;BME280;4062;49.844;8.120;2023-03-30T13:20:15;98684.09;;;14.00;55.97
8039;BME280;4062;49.844;8.120;2023-03-30T13:22:23;98689.38;;;14.00;55.97
8039;BME280;4062;49.844;8.120;2023-03-30T13:26:44;98689.34;;;14.02;56.05